Time;durP1;ratioP1;P1;durP2;ratioP2;P2;SDS_P1;SDS_P2;PMS_P1;PMS_P2;Temp;Humidity;BMP_temperature;BMP_pressure;BME280_temperature;BME280_humidity;BME280_pressure;Samples;Min_cycle;Max_cycle;Signal;HPM_P1;HPM_P2
2022/01/13 00:00:49;;;;;;;30.98;18.25;;;1.10;99.90;;;;;;4987652;28;20058;-78
2022/01/13 00:03:15;;;;;;;29.60;19.42;;;1.00;99.90;;;;;;4982501;28;20096;-79
2022/01/13 00:05:41;;;;;;;30.92;19.38;;;1.00;99.90;;;;;;4988770;28;20478;-78
2022/01/13 00:08:06;;;;;;;30.30;18.70;;;1.00;99.90;;;;;;4985130;28;20023;-78
2022/01/13 00:10:32;;;;;;;32.80;18.75;;;0.90;99.90;;;;;;4988624;28;20113;-78
2022/01/13 00:13:04;;;;;;;30.73;18.50;;;0.90;99.90;;;;;;4972687;28;20106;-78
2022/01/13 00:16:01;;;;;;;22.88;13.93;;;0.90;99.90;;;;;;4971642;28;20035;-78
2022/01/13 00:18:36;;;;;;;29.63;18.88;;;0.90;99.90;;;;;;4988679;28;20046;-78
2022/01/13 00:21:17;;;;;;;30.55;18.70;;;0.80;99.90;;;;;;4987457;28;20447;-78
2022/01/13 00:23:46;;;;;;;34.38;21.38;;;0.80;99.90;;;;;;4989340;28;20042;-78
2022/01/13 00:26:25;;;;;;;35.85;21.55;;;0.80;99.90;;;;;;4986392;28;20133;-78
2022/01/13 00:28:53;;;;;;;35.35;20.55;;;0.80;99.90;;;;;;4983947;28;20069;-78
2022/01/13 00:31:27;;;;;;;36.45;21.90;;;0.90;99.90;;;;;;4980803;28;20478;-78
2022/01/13 00:33:54;;;;;;;38.80;21.52;;;0.90;99.90;;;;;;4980687;28;20057;-78
2022/01/13 00:36:44;;;;;;;34.33;20.65;;;1.00;99.90;;;;;;4981743;28;20038;-78
2022/01/13 00:39:11;;;;;;;35.63;20.63;;;1.00;99.90;;;;;;4981246;28;20045;-78
2022/01/13 00:41:37;;;;;;;36.42;21.73;;;1.00;99.90;;;;;;4986619;28;20034;-78
2022/01/13 00:44:05;;;;;;;34.08;20.35;;;0.90;99.90;;;;;;4986578;28;20018;-78
2022/01/13 00:46:41;;;;;;;39.88;22.42;;;0.90;99.90;;;;;;4985969;28;20073;-78
2022/01/13 00:49:08;;;;;;;34.42;20.55;;;0.80;99.90;;;;;;4984402;28;20039;-78
2022/01/13 00:51:34;;;;;;;37.67;21.35;;;0.80;99.90;;;;;;4986514;28;20728;-78
2022/01/13 00:54:04;;;;;;;35.85;22.05;;;0.80;99.90;;;;;;4980192;28;20055;-77
2022/01/13 00:56:32;;;;;;;36.70;21.63;;;0.70;99.90;;;;;;4988321;28;21940;-77
2022/01/13 00:58:59;;;;;;;37.83;22.08;;;0.70;99.90;;;;;;4988384;28;20036;-78
2022/01/13 01:01:25;;;;;;;43.72;24.50;;;0.70;99.90;;;;;;4978939;28;20058;-79
2022/01/13 01:03:50;;;;;;;38.55;22.92;;;0.70;99.90;;;;;;4982030;28;20085;-77
2022/01/13 01:06:16;;;;;;;42.17;22.88;;;0.80;99.90;;;;;;4987729;28;20525;-78
2022/01/13 01:08:42;;;;;;;40.83;22.88;;;0.80;99.90;;;;;;4981626;28;20026;-77
2022/01/13 01:11:08;;;;;;;36.95;22.02;;;0.80;99.90;;;;;;4984391;28;20517;-78
2022/01/13 01:13:35;;;;;;;38.58;21.38;;;0.80;99.90;;;;;;4984581;28;20038;-77
2022/01/13 01:16:06;;;;;;;31.92;19.88;;;0.80;99.90;;;;;;4982187;28;20037;-77
2022/01/13 01:23:36;;;;;;;35.72;20.90;;;0.80;99.90;;;;;;4983081;28;20037;-78
2022/01/13 01:28:41;;;;;;;38.67;21.40;;;0.70;99.90;;;;;;4974430;28;20042;-78
2022/01/13 01:31:07;;;;;;;39.25;21.77;;;0.70;99.90;;;;;;4983617;28;20504;-78
2022/01/13 01:33:36;;;;;;;35.38;20.52;;;0.60;99.90;;;;;;4982297;28;20039;-78
2022/01/13 01:36:04;;;;;;;38.38;20.38;;;0.60;99.90;;;;;;4977908;28;20018;-78
2022/01/13 01:38:30;;;;;;;39.05;21.33;;;0.60;99.90;;;;;;4984544;28;20033;-78
2022/01/13 01:40:56;;;;;;;36.30;21.42;;;0.60;99.90;;;;;;4986952;28;20114;-78
2022/01/13 01:43:22;;;;;;;35.33;21.08;;;0.50;99.90;;;;;;4983029;28;20104;-78
2022/01/13 01:45:49;;;;;;;35.88;21.05;;;0.60;99.90;;;;;;4975155;28;20114;-79
2022/01/13 01:48:19;;;;;;;34.55;21.00;;;0.60;99.90;;;;;;4981761;28;20033;-79
2022/01/13 01:50:54;;;;;;;33.10;19.95;;;0.60;99.90;;;;;;4985516;28;20038;-79
2022/01/13 01:53:21;;;;;;;34.80;21.25;;;0.60;99.90;;;;;;4987023;28;20033;-78
2022/01/13 01:55:46;;;;;;;37.03;20.20;;;0.60;99.90;;;;;;4984869;28;20033;-79
2022/01/13 01:58:12;;;;;;;30.58;18.60;;;0.60;99.90;;;;;;4985202;28;20110;-79
2022/01/13 02:00:38;;;;;;;35.58;20.27;;;0.70;99.90;;;;;;4984021;28;20409;-79
2022/01/13 02:03:05;;;;;;;37.40;20.45;;;0.70;99.90;;;;;;4985539;28;20484;-79
2022/01/13 02:05:31;;;;;;;31.85;20.08;;;0.70;99.90;;;;;;4974334;28;20110;-79
2022/01/13 02:07:57;;;;;;;29.90;18.73;;;0.70;99.90;;;;;;4975028;28;20153;-78
2022/01/13 02:10:22;;;;;;;33.20;19.10;;;0.70;99.90;;;;;;4985092;28;20050;-78
2022/01/13 02:12:52;;;;;;;31.88;18.88;;;0.70;99.90;;;;;;4985226;28;20114;-79
2022/01/13 02:15:30;;;;;;;30.67;18.58;;;0.70;99.90;;;;;;4983013;28;20286;-79
2022/01/13 02:17:58;;;;;;;32.55;18.80;;;0.70;99.90;;;;;;4980998;28;20042;-79
2022/01/13 02:20:24;;;;;;;33.50;18.38;;;0.70;99.90;;;;;;4982504;28;20581;-78
2022/01/13 02:22:50;;;;;;;31.08;18.35;;;0.70;99.90;;;;;;4985929;28;20034;-79
2022/01/13 02:25:16;;;;;;;32.10;19.05;;;0.70;99.90;;;;;;4972672;28;20494;-78
2022/01/13 02:27:43;;;;;;;28.88;17.83;;;0.70;99.90;;;;;;4980897;28;20072;-78
2022/01/13 02:30:09;;;;;;;30.70;17.70;;;0.70;99.90;;;;;;4988155;28;20022;-78
2022/01/13 02:32:35;;;;;;;29.70;17.98;;;0.70;99.90;;;;;;4987275;28;20041;-78
2022/01/13 02:35:01;;;;;;;30.90;18.80;;;0.70;99.90;;;;;;4981138;28;20030;-78
2022/01/13 02:37:26;;;;;;;30.20;18.25;;;0.70;99.90;;;;;;4981805;28;20019;-78
2022/01/13 02:39:52;;;;;;;34.25;19.38;;;0.70;99.90;;;;;;4985642;28;20491;-78
2022/01/13 02:42:17;;;;;;;29.58;18.08;;;0.70;99.90;;;;;;4986727;28;20030;-78
2022/01/13 02:45:15;;;;;;;32.80;19.15;;;0.70;99.90;;;;;;4982280;28;20061;-78
2022/01/13 02:50:05;;;;;;;33.38;18.73;;;0.60;99.90;;;;;;4985507;28;20070;-77
2022/01/13 02:52:33;;;;;;;31.25;18.75;;;0.60;99.90;;;;;;4981330;28;20041;-78
2022/01/13 02:54:58;;;;;;;29.92;19.33;;;0.60;99.90;;;;;;4982901;28;20410;-78
2022/01/13 02:57:24;;;;;;;34.33;20.73;;;0.60;99.90;;;;;;4983142;28;20263;-78
2022/01/13 02:59:50;;;;;;;32.38;20.20;;;0.60;99.90;;;;;;4984916;28;20194;-78
2022/01/13 03:02:15;;;;;;;34.53;19.70;;;0.60;99.90;;;;;;4981167;28;20018;-78
2022/01/13 03:04:48;;;;;;;34.72;20.27;;;0.60;99.90;;;;;;4978764;28;20039;-78
2022/01/13 03:07:14;;;;;;;34.60;20.33;;;0.60;99.90;;;;;;4980520;28;20430;-78
2022/01/13 03:09:42;;;;;;;35.97;20.35;;;0.50;99.90;;;;;;4982378;28;20607;-78
2022/01/13 03:12:08;;;;;;;35.25;20.20;;;0.40;99.90;;;;;;4979463;28;20026;-78
2022/01/13 03:14:34;;;;;;;33.45;21.70;;;0.40;99.90;;;;;;4975108;28;20113;-78
2022/01/13 03:16:59;;;;;;;37.92;22.30;;;0.40;99.90;;;;;;4976585;28;20153;-79
2022/01/13 03:19:25;;;;;;;36.08;22.58;;;0.30;99.90;;;;;;4972613;28;20096;-78
2022/01/13 03:21:50;;;;;;;38.47;22.23;;;0.30;99.90;;;;;;4977454;28;20033;-79
2022/01/13 03:24:16;;;;;;;36.72;22.75;;;0.30;99.90;;;;;;4971001;28;20038;-78
2022/01/13 03:26:44;;;;;;;37.75;22.60;;;0.30;99.90;;;;;;4979718;28;20031;-79
2022/01/13 03:31:35;;;;;;;41.28;22.80;;;0.20;99.90;;;;;;4961119;28;20130;-78
2022/01/13 03:34:01;;;;;;;41.75;25.73;;;0.20;99.90;;;;;;4966950;28;20103;-78
2022/01/13 03:36:27;;;;;;;42.65;24.15;;;0.20;99.90;;;;;;4965689;28;20050;-78
2022/01/13 03:38:54;;;;;;;43.58;25.08;;;0.20;99.90;;;;;;4967646;28;20056;-78
2022/01/13 03:41:21;;;;;;;50.65;27.00;;;0.20;99.90;;;;;;4963847;28;20097;-77
2022/01/13 03:43:47;;;;;;;48.85;26.00;;;0.20;99.90;;;;;;4957931;28;20066;-78
2022/01/13 03:46:14;;;;;;;45.00;25.42;;;0.20;99.90;;;;;;4958030;28;20873;-78
2022/01/13 03:48:41;;;;;;;50.63;27.73;;;0.30;99.90;;;;;;4955296;28;20023;-78
2022/01/13 03:51:07;;;;;;;47.80;27.38;;;0.30;99.90;;;;;;4965578;28;20050;-77
2022/01/13 03:53:32;;;;;;;58.55;29.83;;;0.30;99.90;;;;;;4967377;28;20062;-77
2022/01/13 03:56:36;;;;;;;52.15;27.48;;;0.30;99.90;;;;;;4957079;28;20054;-79
2022/01/13 03:59:31;;;;;;;54.40;29.83;;;0.40;99.90;;;;;;4951262;28;20023;-78
2022/01/13 04:02:00;;;;;;;49.03;28.23;;;0.40;99.90;;;;;;4966296;28;20043;-77
2022/01/13 04:04:31;;;;;;;58.30;30.10;;;0.40;99.90;;;;;;4963134;28;20043;-77
2022/01/13 04:07:10;;;;;;;58.72;30.70;;;0.40;99.90;;;;;;4967815;28;20754;-78
2022/01/13 04:09:51;;;;;;;55.60;28.90;;;0.40;99.90;;;;;;4965987;28;20031;-78
2022/01/13 04:12:20;;;;;;;57.20;28.58;;;0.40;99.90;;;;;;4962766;28;20655;-78
2022/01/13 04:14:50;;;;;;;57.25;29.33;;;0.40;99.90;;;;;;4963300;28;20031;-78
2022/01/13 04:17:18;;;;;;;54.97;28.75;;;0.50;99.90;;;;;;4959667;28;20039;-78
2022/01/13 04:19:48;;;;;;;56.53;29.52;;;0.50;99.90;;;;;;4961700;28;20113;-78
2022/01/13 04:22:15;;;;;;;55.33;28.98;;;0.40;99.90;;;;;;4960786;28;20035;-78
2022/01/13 04:24:50;;;;;;;59.05;28.75;;;0.40;99.90;;;;;;4967707;28;20046;-78
2022/01/13 04:27:24;;;;;;;63.40;30.90;;;0.40;99.90;;;;;;4952277;28;20098;-78
2022/01/13 04:30:11;;;;;;;60.60;29.55;;;0.50;99.90;;;;;;4976157;28;20517;-78
2022/01/13 04:32:36;;;;;;;55.25;29.63;;;0.50;99.90;;;;;;4976196;28;20661;-78
2022/01/13 04:35:02;;;;;;;62.25;30.90;;;0.50;99.90;;;;;;4980277;28;20538;-78
2022/01/13 04:37:28;;;;;;;58.60;29.08;;;0.50;99.90;;;;;;4984431;28;20033;-78
2022/01/13 04:39:53;;;;;;;61.20;29.42;;;0.50;99.90;;;;;;4983609;28;20192;-78
2022/01/13 04:42:19;;;;;;;55.10;29.65;;;0.50;99.90;;;;;;4987096;28;20030;-78
2022/01/13 04:44:44;;;;;;;64.32;31.10;;;0.50;99.90;;;;;;4987145;28;20045;-78
2022/01/13 04:47:10;;;;;;;68.30;33.25;;;0.50;99.90;;;;;;4975845;28;20030;-78
2022/01/13 04:49:36;;;;;;;64.07;30.73;;;0.50;99.90;;;;;;4982347;28;20117;-78
2022/01/13 04:52:02;;;;;;;81.32;36.22;;;0.50;99.90;;;;;;4979535;28;20038;-78
2022/01/13 04:54:27;;;;;;;76.38;34.92;;;0.40;99.90;;;;;;4983143;28;20547;-77
2022/01/13 04:57:06;;;;;;;78.22;35.17;;;0.40;99.90;;;;;;4988253;28;20037;-78
2022/01/13 04:59:32;;;;;;;60.50;28.55;;;0.40;99.90;;;;;;4985050;28;20042;-78
2022/01/13 05:02:00;;;;;;;59.38;27.92;;;0.40;99.90;;;;;;4983358;28;20040;-78
2022/01/13 05:04:25;;;;;;;56.97;26.02;;;0.50;99.90;;;;;;4990266;28;20041;-78
2022/01/13 05:06:51;;;;;;;59.88;27.15;;;0.50;99.90;;;;;;4975623;28;20035;-77
2022/01/13 05:09:16;;;;;;;54.25;25.83;;;0.50;99.90;;;;;;4977284;28;20135;-78
2022/01/13 05:11:42;;;;;;;51.42;26.45;;;0.50;99.90;;;;;;4984840;28;20077;-77
2022/01/13 05:14:08;;;;;;;50.70;25.52;;;0.50;99.90;;;;;;4985674;28;20486;-77
2022/01/13 05:19:26;;;;;;;55.85;28.27;;;0.50;99.90;;;;;;4982718;28;20151;-78
2022/01/13 05:24:20;;;;;;;51.70;25.60;;;0.50;99.90;;;;;;4987522;28;20139;-78
2022/01/13 05:26:46;;;;;;;52.33;27.05;;;0.50;99.90;;;;;;4979323;28;20029;-77
2022/01/13 05:29:17;;;;;;;60.67;30.25;;;0.50;99.90;;;;;;4974894;28;20137;-78
2022/01/13 05:31:43;;;;;;;56.83;28.95;;;0.50;99.90;;;;;;4984209;28;20030;-77
2022/01/13 05:34:08;;;;;;;62.97;30.52;;;0.50;99.90;;;;;;4982980;28;20486;-78
2022/01/13 05:36:34;;;;;;;54.38;27.02;;;0.50;99.90;;;;;;4991991;28;20060;-78
2022/01/13 05:38:59;;;;;;;56.17;26.88;;;0.50;99.90;;;;;;4972549;28;20059;-78
2022/01/13 05:41:25;;;;;;;56.88;27.48;;;0.50;99.90;;;;;;4984230;28;20030;-77
2022/01/13 05:43:51;;;;;;;59.50;27.40;;;0.50;99.90;;;;;;4974006;28;20074;-77
2022/01/13 05:46:16;;;;;;;56.90;26.88;;;0.50;99.90;;;;;;4978036;28;20069;-77
2022/01/13 05:48:42;;;;;;;58.75;28.40;;;0.50;99.90;;;;;;4982699;28;20034;-77
2022/01/13 05:51:08;;;;;;;59.83;27.48;;;0.40;99.90;;;;;;4988350;28;20031;-77
2022/01/13 05:53:33;;;;;;;56.03;27.20;;;0.40;99.90;;;;;;4977487;28;20031;-77
2022/01/13 05:55:59;;;;;;;60.88;28.08;;;0.40;99.90;;;;;;4980111;28;20034;-77
2022/01/13 05:58:25;;;;;;;57.30;27.65;;;0.40;99.90;;;;;;4987111;28;20113;-77
2022/01/13 06:00:50;;;;;;;49.78;25.10;;;0.40;99.90;;;;;;4981903;28;20487;-77
2022/01/13 06:03:16;;;;;;;51.53;25.55;;;0.40;99.90;;;;;;4987016;28;20046;-78
2022/01/13 06:05:42;;;;;;;50.05;25.10;;;0.40;99.90;;;;;;4984430;28;20035;-79
2022/01/13 06:08:07;;;;;;;49.95;25.25;;;0.40;99.90;;;;;;4985891;28;20483;-79
2022/01/13 06:10:33;;;;;;;53.30;25.67;;;0.40;99.90;;;;;;4986632;28;20082;-78
2022/01/13 06:12:58;;;;;;;51.03;25.88;;;0.40;99.90;;;;;;4984848;28;20037;-79
2022/01/13 06:15:26;;;;;;;56.00;26.23;;;0.30;99.90;;;;;;4983086;28;20053;-79
2022/01/13 06:17:53;;;;;;;57.67;26.13;;;0.30;99.90;;;;;;4981720;28;20034;-78
2022/01/13 06:20:20;;;;;;;56.30;27.83;;;0.30;99.90;;;;;;4982322;28;20044;-79
2022/01/13 06:22:47;;;;;;;60.78;29.25;;;0.30;99.90;;;;;;4978617;28;20026;-79
2022/01/13 06:25:14;;;;;;;59.08;28.25;;;0.30;99.90;;;;;;4988553;28;20034;-77
2022/01/13 06:27:40;;;;;;;58.83;27.42;;;0.30;99.90;;;;;;4982507;28;20044;-78
2022/01/13 06:30:09;;;;;;;59.22;27.58;;;0.30;99.90;;;;;;4969943;28;20035;-78
2022/01/13 06:32:35;;;;;;;58.10;27.38;;;0.30;99.90;;;;;;4983007;28;20057;-78
2022/01/13 06:35:01;;;;;;;63.40;28.75;;;0.30;99.90;;;;;;4980982;28;20579;-79
2022/01/13 06:37:26;;;;;;;62.42;28.63;;;0.30;99.90;;;;;;4974553;28;20062;-79
2022/01/13 06:39:52;;;;;;;64.25;28.83;;;0.20;99.90;;;;;;4982821;28;20127;-79
2022/01/13 06:42:18;;;;;;;62.47;29.85;;;0.20;99.90;;;;;;4978749;28;20029;-79
2022/01/13 06:44:44;;;;;;;71.25;30.42;;;0.20;99.90;;;;;;4980421;28;20034;-78
2022/01/13 06:47:10;;;;;;;65.95;30.13;;;0.20;99.90;;;;;;4981093;28;20029;-78
2022/01/13 06:49:35;;;;;;;67.80;30.85;;;0.20;99.90;;;;;;4982097;28;20592;-77
2022/01/13 06:52:02;;;;;;;66.90;30.73;;;0.20;99.90;;;;;;4986099;28;20022;-78
2022/01/13 06:54:27;;;;;;;70.35;31.38;;;0.20;99.90;;;;;;4978984;28;20450;-78
2022/01/13 06:56:53;;;;;;;72.03;31.77;;;0.20;99.90;;;;;;4971337;28;20058;-78
2022/01/13 06:59:19;;;;;;;69.53;32.25;;;0.20;99.90;;;;;;4980987;28;20121;-78
2022/01/13 07:01:46;;;;;;;67.90;30.55;;;0.20;99.90;;;;;;4975079;28;20034;-78
2022/01/13 07:04:13;;;;;;;65.35;28.85;;;0.20;99.90;;;;;;4970390;28;20033;-79
2022/01/13 07:06:40;;;;;;;67.50;31.13;;;0.20;99.90;;;;;;4977877;28;20096;-78
2022/01/13 07:09:10;;;;;;;71.93;31.63;;;0.20;99.90;;;;;;4980424;28;20754;-78
2022/01/13 07:11:36;;;;;;;65.90;30.55;;;0.20;99.90;;;;;;4978819;28;20462;-78
2022/01/13 07:14:03;;;;;;;70.82;30.27;;;0.20;99.90;;;;;;4979895;28;20031;-78
2022/01/13 07:16:28;;;;;;;64.40;29.33;;;0.20;99.90;;;;;;4976207;28;20026;-78
2022/01/13 07:18:54;;;;;;;63.05;28.80;;;0.20;99.90;;;;;;4976532;28;20034;-78
2022/01/13 07:21:22;;;;;;;60.35;27.45;;;0.20;99.90;;;;;;4980456;28;20041;-78
2022/01/13 07:23:48;;;;;;;55.80;26.90;;;0.20;99.90;;;;;;4982417;28;20034;-78
2022/01/13 07:26:14;;;;;;;61.85;28.83;;;0.30;99.90;;;;;;4978355;28;20244;-78
2022/01/13 07:28:40;;;;;;;58.80;27.63;;;0.30;99.90;;;;;;4976170;28;20138;-78
2022/01/13 07:31:06;;;;;;;61.53;28.55;;;0.30;99.90;;;;;;4975478;28;20073;-78
2022/01/13 07:33:31;;;;;;;74.50;34.53;;;0.20;99.90;;;;;;4976231;28;20479;-78
2022/01/13 07:35:57;;;;;;;70.85;31.58;;;0.30;99.90;;;;;;4979541;28;20019;-78
2022/01/13 07:38:23;;;;;;;60.88;28.70;;;0.30;99.90;;;;;;4983661;28;20027;-78
2022/01/13 07:40:49;;;;;;;64.20;30.10;;;0.30;99.90;;;;;;4977849;28;20073;-79
2022/01/13 07:43:22;;;;;;;66.78;30.73;;;0.30;99.90;;;;;;4986110;28;20165;-78
2022/01/13 07:45:49;;;;;;;67.82;32.47;;;0.30;99.90;;;;;;4979021;28;20406;-78
2022/01/13 07:48:16;;;;;;;67.85;30.23;;;0.40;99.90;;;;;;4975856;28;20073;-78
2022/01/13 07:53:45;;;;;;;63.92;28.55;;;;;;;;;;4973076;28;20029;-75
2022/01/13 07:56:11;;;;;;;62.60;27.52;;;;;;;;;;4979711;28;20058;-75
2022/01/13 07:58:37;;;;;;;63.50;29.15;;;;;;;;;;4978289;28;20027;-75
2022/01/13 08:01:04;;;;;;;67.60;30.30;;;;;;;;;;4982455;28;20038;-75
2022/01/13 08:03:30;;;;;;;60.22;28.42;;;0.60;99.90;;;;;;4978113;28;20666;-72
2022/01/13 08:05:55;;;;;;;60.30;29.45;;;0.50;99.90;;;;;;4968719;28;20035;-72
2022/01/13 08:08:21;;;;;;;63.90;29.45;;;0.50;99.90;;;;;;4980588;28;20541;-71
2022/01/13 08:10:47;;;;;;;60.58;27.48;;;0.40;99.90;;;;;;4980423;28;20114;-72
2022/01/13 08:13:12;;;;;;;63.55;27.70;;;0.50;99.90;;;;;;4974521;28;20029;-72
2022/01/13 08:15:40;;;;;;;59.78;28.05;;;0.50;99.90;;;;;;4971435;28;20195;-72
2022/01/13 08:20:49;;;;;;;57.88;26.20;;;0.50;99.90;;;;;;4980802;28;20056;-72
2022/01/13 08:23:15;;;;;;;58.35;27.98;;;0.50;99.90;;;;;;4985933;28;20537;-72
2022/01/13 08:25:41;;;;;;;55.70;25.45;;;0.50;99.90;;;;;;4983058;28;20100;-72
2022/01/13 08:28:06;;;;;;;59.88;26.50;;;0.50;99.90;;;;;;4978054;28;20053;-72
2022/01/13 08:30:33;;;;;;;58.63;26.58;;;0.50;99.90;;;;;;4985508;28;20030;-72
2022/01/13 08:32:58;;;;;;;54.33;25.38;;;0.40;99.90;;;;;;4982813;28;20054;-72
2022/01/13 08:35:24;;;;;;;55.20;25.35;;;0.40;99.90;;;;;;4981780;28;20058;-72
2022/01/13 08:37:50;;;;;;;59.33;27.85;;;0.40;99.90;;;;;;4977514;28;20018;-72
2022/01/13 08:40:16;;;;;;;60.25;26.60;;;0.40;99.90;;;;;;4970960;28;20027;-72
2022/01/13 08:42:42;;;;;;;64.25;30.77;;;0.40;99.90;;;;;;4980485;28;20502;-72
2022/01/13 08:45:10;;;;;;;62.60;30.08;;;0.50;99.90;;;;;;4979639;28;20442;-72
2022/01/13 08:47:36;;;;;;;60.38;29.35;;;0.40;99.90;;;;;;4975983;28;20038;-72
2022/01/13 08:50:05;;;;;;;72.03;36.70;;;0.50;99.90;;;;;;4977081;28;20025;-72
2022/01/13 08:52:33;;;;;;;62.65;28.95;;;0.40;99.90;;;;;;4985781;28;20030;-72
2022/01/13 08:54:59;;;;;;;57.97;26.98;;;0.50;99.90;;;;;;4976536;28;20023;-72
2022/01/13 08:57:25;;;;;;;64.68;29.52;;;0.50;99.90;;;;;;4976795;28;20031;-73
2022/01/13 08:59:51;;;;;;;59.97;27.60;;;0.50;99.90;;;;;;4980736;28;20034;-72
2022/01/13 09:02:17;;;;;;;63.25;28.75;;;;;;;;;;4985751;28;20564;-75
2022/01/13 09:04:43;;;;;;;57.60;28.90;;;;;;;;;;4985485;28;20081;-75
2022/01/13 09:07:09;;;;;;;62.70;30.20;;;0.60;99.90;;;;;;4978934;28;20454;-75
2022/01/13 09:09:35;;;;;;;63.58;28.17;;;0.60;99.90;;;;;;4981673;28;20109;-75
2022/01/13 09:12:02;;;;;;;61.13;27.30;;;;;;;;;;4979235;28;20026;-76
2022/01/13 09:14:29;;;;;;;63.35;28.98;;;0.50;99.90;;;;;;4980997;28;20093;-75
2022/01/13 09:16:57;;;;;;;76.53;34.55;;;0.60;99.90;;;;;;4978720;28;20025;-75
2022/01/13 09:19:22;;;;;;;68.15;33.05;;;0.50;99.90;;;;;;4980893;28;20523;-75
2022/01/13 09:21:49;;;;;;;69.80;29.75;;;0.50;99.90;;;;;;4986346;28;20030;-75
2022/01/13 09:24:17;;;;;;;67.97;31.55;;;0.60;99.90;;;;;;4982583;28;20034;-73
2022/01/13 09:26:44;;;;;;;71.57;33.45;;;0.60;99.90;;;;;;4979318;28;20081;-72
2022/01/13 09:29:10;;;;;;;64.80;31.02;;;0.60;99.90;;;;;;4981855;28;20049;-72
2022/01/13 09:31:38;;;;;;;62.65;28.63;;;0.60;99.90;;;;;;4975123;28;20490;-72
2022/01/13 09:34:05;;;;;;;66.28;28.88;;;0.60;99.90;;;;;;4972471;28;20034;-73
2022/01/13 09:36:32;;;;;;;68.22;29.55;;;0.60;99.90;;;;;;4982484;28;20478;-72
2022/01/13 09:39:03;;;;;;;67.00;30.13;;;0.60;99.90;;;;;;4979757;28;20377;-73
2022/01/13 09:41:31;;;;;;;72.97;30.75;;;0.60;99.90;;;;;;4979202;28;20050;-72
2022/01/13 09:43:58;;;;;;;67.82;29.98;;;0.60;99.90;;;;;;4988937;28;20121;-72
2022/01/13 09:46:26;;;;;;;67.68;29.55;;;0.70;99.90;;;;;;4980196;28;20026;-73
2022/01/13 09:48:53;;;;;;;66.65;30.60;;;0.70;99.90;;;;;;4982998;28;20133;-73
2022/01/13 09:51:23;;;;;;;62.92;28.77;;;0.70;99.90;;;;;;4977918;28;20035;-72
2022/01/13 09:53:49;;;;;;;65.13;27.40;;;0.80;99.90;;;;;;4971126;28;20031;-72
2022/01/13 09:56:14;;;;;;;62.72;27.45;;;0.80;99.90;;;;;;4983449;28;20033;-72
2022/01/13 09:58:43;;;;;;;60.80;25.80;;;0.80;99.90;;;;;;4983453;28;20030;-72
2022/01/13 10:01:13;;;;;;;61.40;26.55;;;0.80;99.90;;;;;;4975619;28;20149;-72
2022/01/13 10:03:39;;;;;;;56.45;24.90;;;;;;;;;;4984013;28;20109;-72
2022/01/13 10:06:15;;;;;;;56.33;24.95;;;;;;;;;;4984947;28;20057;-72
2022/01/13 10:08:55;;;;;;;55.42;25.30;;;0.90;99.90;;;;;;4988470;28;20458;-72
2022/01/13 10:11:40;;;;;;;68.60;31.45;;;0.90;99.90;;;;;;4985539;28;20019;-72
2022/01/13 10:16:58;;;;;;;60.53;27.63;;;0.90;99.90;;;;;;4972791;28;20588;-74
2022/01/13 10:19:29;;;;;;;66.30;28.75;;;0.90;99.90;;;;;;4980058;28;20046;-72
2022/01/13 10:22:25;;;;;;;60.15;26.52;;;0.90;99.90;;;;;;4979639;28;20037;-72
2022/01/13 10:24:53;;;;;;;60.08;25.75;;;0.90;99.90;;;;;;4972716;28;20556;-73
2022/01/13 10:27:29;;;;;;;61.05;26.25;;;0.90;99.90;;;;;;4978767;28;20034;-72
2022/01/13 10:29:59;;;;;;;65.68;27.42;;;1.00;99.90;;;;;;4983492;28;20149;-73
2022/01/13 10:32:33;;;;;;;67.43;28.27;;;1.00;99.90;;;;;;4977500;28;20030;-74
2022/01/13 10:35:06;;;;;;;57.92;25.80;;;1.10;99.90;;;;;;4982302;28;20058;-74
2022/01/13 10:37:33;;;;;;;;;;;;;;;;;;4986973;28;20038;-73
2022/01/13 10:40:07;;;;;;;55.15;24.05;;;1.10;99.90;;;;;;4981972;28;19918;-73
2022/01/13 10:45:14;;;;;;;56.03;24.98;;;1.20;99.90;;;;;;4980843;28;20398;-74
2022/01/13 10:47:40;;;;;;;61.22;27.30;;;1.10;99.90;;;;;;4982777;28;20034;-74
2022/01/13 10:50:13;;;;;;;58.45;26.05;;;1.20;99.90;;;;;;4982116;28;20030;-73
2022/01/13 10:52:39;;;;;;;;;;;1.20;99.90;;;;;;4980562;28;20498;-73
2022/01/13 10:55:14;;;;;;;63.88;27.42;;;1.20;99.90;;;;;;4982321;28;19921;-74
2022/01/13 10:57:43;;;;;;;62.80;25.88;;;1.30;99.90;;;;;;4972141;28;20030;-73
2022/01/13 11:00:17;;;;;;;60.15;26.95;;;1.30;99.90;;;;;;4982178;28;20053;-73
2022/01/13 11:02:57;;;;;;;60.78;27.98;;;1.30;99.90;;;;;;4978911;28;20034;-73
2022/01/13 11:05:27;;;;;;;61.10;27.65;;;1.30;99.90;;;;;;4984685;28;20062;-73
2022/01/13 11:07:53;;;;;;;61.90;27.15;;;1.30;99.90;;;;;;4975207;28;20031;-73
2022/01/13 11:10:20;;;;;;;62.90;28.40;;;1.40;99.90;;;;;;4984624;28;20030;-73
2022/01/13 11:12:54;;;;;;;65.05;31.27;;;1.30;99.90;;;;;;4979565;28;20045;-72
2022/01/13 11:15:20;;;;;;;65.75;30.08;;;1.30;99.90;;;;;;4986418;28;20031;-73
2022/01/13 11:17:48;;;;;;;64.30;28.25;;;1.40;99.90;;;;;;4982174;28;20031;-72
2022/01/13 11:20:18;;;;;;;84.15;35.35;;;1.50;99.90;;;;;;4978984;28;20514;-72
2022/01/13 11:22:46;;;;;;;69.47;31.83;;;1.50;99.90;;;;;;4977017;28;20557;-73
2022/01/13 11:25:15;;;;;;;66.00;29.38;;;1.50;99.90;;;;;;4984787;28;20490;-72
2022/01/13 11:27:40;;;;;;;63.05;29.23;;;1.50;99.90;;;;;;4980667;28;20046;-72
2022/01/13 11:30:18;;;;;;;65.07;28.20;;;1.50;99.90;;;;;;4983602;28;20037;-72
2022/01/13 11:32:46;;;;;;;68.00;28.88;;;1.50;99.90;;;;;;4984115;28;20026;-73
2022/01/13 11:35:28;;;;;;;67.15;27.90;;;1.60;99.90;;;;;;4985659;28;20042;-73
2022/01/13 11:37:58;;;;;;;63.97;28.95;;;1.50;99.90;;;;;;4974866;28;20191;-74
2022/01/13 11:40:27;;;;;;;62.03;28.17;;;1.50;99.90;;;;;;4984417;28;20030;-74
2022/01/13 11:42:54;;;;;;;64.15;28.55;;;1.60;99.90;;;;;;4978751;28;20150;-75
2022/01/13 11:45:21;;;;;;;60.72;27.10;;;1.60;99.90;;;;;;4975152;28;20026;-75
2022/01/13 11:47:48;;;;;;;62.25;27.92;;;1.60;99.90;;;;;;4975870;28;20537;-74
2022/01/13 11:50:30;;;;;;;62.92;28.58;;;1.70;99.90;;;;;;4985639;28;20093;-74
2022/01/13 11:52:57;;;;;;;61.05;26.58;;;1.70;99.90;;;;;;4983150;28;20057;-75
2022/01/13 11:55:29;;;;;;;65.40;28.88;;;1.70;99.90;;;;;;4982027;28;20526;-73
2022/01/13 11:58:15;;;;;;;57.58;26.48;;;1.70;99.90;;;;;;4982397;28;20478;-72
2022/01/13 12:00:43;;;;;;;61.10;27.95;;;1.70;99.90;;;;;;4984800;28;20046;-73
2022/01/13 12:03:22;;;;;;;59.35;27.70;;;;;;;;;;4984428;28;20034;-74
2022/01/13 12:05:48;;;;;;;59.72;27.88;;;1.80;99.90;;;;;;4975870;28;20022;-73
2022/01/13 12:08:35;;;;;;;62.58;26.77;;;1.80;99.90;;;;;;4981916;28;20093;-73
2022/01/13 12:11:02;;;;;;;60.67;27.02;;;1.80;99.90;;;;;;4971174;28;20699;-73
2022/01/13 12:13:33;;;;;;;61.22;26.90;;;1.70;99.90;;;;;;4980282;28;20031;-73
2022/01/13 12:16:00;;;;;;;59.45;26.45;;;1.70;99.90;;;;;;4982190;28;20105;-73
2022/01/13 12:18:53;;;;;;;58.72;26.42;;;1.70;99.90;;;;;;4987322;28;20498;-74
2022/01/13 12:21:27;;;;;;;50.13;21.98;;;1.70;99.90;;;;;;4981011;28;20065;-72
2022/01/13 12:23:53;;;;;;;59.08;26.70;;;1.70;99.90;;;;;;4980404;28;20038;-74
2022/01/13 12:26:33;;;;;;;59.30;25.92;;;1.70;99.90;;;;;;4977422;28;20033;-72
2022/01/13 12:29:23;;;;;;;59.75;26.75;;;1.70;99.90;;;;;;4974909;28;20078;-74
2022/01/13 12:31:49;;;;;;;59.10;27.27;;;1.80;99.90;;;;;;4982763;28;20045;-73
2022/01/13 12:34:22;;;;;;;56.00;24.60;;;1.80;99.90;;;;;;4976873;28;20034;-73
2022/01/13 12:36:48;;;;;;;61.25;25.95;;;1.80;99.90;;;;;;4974471;28;20043;-74
2022/01/13 12:39:15;;;;;;;66.85;31.27;;;1.80;99.90;;;;;;4984171;28;20046;-73
2022/01/13 12:41:58;;;;;;;60.13;28.95;;;1.80;99.90;;;;;;4984513;28;20069;-73
2022/01/13 12:47:10;;;;;;;66.15;32.13;;;1.80;99.90;;;;;;4981869;28;20041;-73
2022/01/13 12:49:37;;;;;;;70.47;32.40;;;1.70;99.90;;;;;;4980409;28;20183;-73
2022/01/13 12:52:04;;;;;;;65.93;31.88;;;1.80;99.90;;;;;;4980968;28;20029;-74
2022/01/13 12:54:29;;;;;;;70.45;30.40;;;1.80;99.90;;;;;;4982260;28;20042;-73
2022/01/13 12:56:55;;;;;;;58.97;28.50;;;1.80;99.90;;;;;;4977352;28;20026;-73
2022/01/13 12:59:23;;;;;;;59.58;27.92;;;1.80;99.90;;;;;;4971376;28;20043;-73
2022/01/13 13:01:48;;;;;;;63.92;28.70;;;1.80;99.90;;;;;;4979098;28;20441;-73
2022/01/13 13:04:14;;;;;;;58.25;26.42;;;1.80;99.90;;;;;;4982137;28;20022;-73
2022/01/13 13:06:47;;;;;;;64.22;30.25;;;1.80;99.90;;;;;;4984993;28;20061;-73
2022/01/13 13:09:18;;;;;;;70.45;30.17;;;1.80;99.90;;;;;;4983421;28;20026;-73
2022/01/13 13:11:50;;;;;;;63.13;27.52;;;1.80;99.90;;;;;;4977060;28;20084;-75
2022/01/13 13:17:28;;;;;;;74.95;32.10;;;1.80;99.90;;;;;;4978991;28;20034;-75
2022/01/13 13:19:54;;;;;;;72.80;32.13;;;1.70;99.90;;;;;;4982552;28;20030;-77
2022/01/13 13:22:19;;;;;;;68.68;30.85;;;1.80;99.90;;;;;;4980972;28;20157;-76